Time;durP1;ratioP1;P1;durP2;ratioP2;P2;SDS_P1;SDS_P2;PMS_P1;PMS_P2;Temp;Humidity;BMP_temperature;BMP_pressure;BME280_temperature;BME280_humidity;BME280_pressure;Samples;Min_cycle;Max_cycle;Signal;HPM_P1;HPM_P2
2022/09/03 00:02:52;;;;;;;4.40;3.17;;;12.70;99.90;13.60;96836.00;;;;4992851;28;20211;-87
2022/09/03 00:05:48;;;;;;;2.77;2.57;;;12.70;99.90;13.60;96837.00;;;;4996803;28;20205;-86
2022/09/03 00:08:44;;;;;;;2.60;2.40;;;12.70;99.90;13.60;96836.00;;;;5008679;28;20717;-86
2022/09/03 00:11:43;;;;;;;2.93;2.63;;;12.70;99.90;13.60;96841.00;;;;4998392;28;20595;-85
2022/09/03 00:14:38;;;;;;;5.60;2.30;;;12.70;99.90;13.40;96829.00;;;;4993303;28;20217;-87
2022/09/03 00:17:33;;;;;;;2.67;2.47;;;12.60;99.90;13.20;96828.00;;;;4999355;28;20202;-87
2022/09/03 00:20:30;;;;;;;3.43;2.90;;;12.60;99.90;13.20;96836.00;;;;5008657;28;20213;-87
2022/09/03 00:23:23;;;;;;;3.27;2.43;;;12.50;99.90;13.20;96825.00;;;;5001115;28;20229;-84
2022/09/03 00:26:24;;;;;;;5.17;3.00;;;12.50;99.90;13.20;96826.00;;;;5029545;28;20194;-80
2022/09/03 00:29:18;;;;;;;3.83;2.50;;;12.40;99.90;13.20;96823.00;;;;5024122;28;20224;-82
2022/09/03 00:32:14;;;;;;;2.63;2.50;;;12.40;99.90;13.00;96814.00;;;;4997387;28;20205;-82
2022/09/03 00:35:09;;;;;;;2.90;2.70;;;12.30;99.90;12.70;96811.00;;;;4998544;28;20222;-87
2022/09/03 00:38:00;;;;;;;2.77;2.57;;;12.20;99.90;12.50;96795.00;;;;5002310;28;20203;-85
2022/09/03 00:41:07;;;;;;;7.30;3.00;;;12.10;99.90;12.60;96793.00;;;;4996489;28;20218;-86
2022/09/03 00:44:20;;;;;;;5.90;2.97;;;12.00;99.90;12.70;96795.00;;;;5005650;28;20231;-82
2022/09/03 00:47:17;;;;;;;2.97;2.77;;;11.90;99.90;12.60;96801.00;;;;5004023;28;20203;-84
2022/09/03 00:50:15;;;;;;;3.70;3.40;;;11.90;99.90;12.70;96798.00;;;;5000245;28;20233;-85
2022/09/03 00:53:15;;;;;;;3.40;3.10;;;11.90;99.90;12.90;96804.00;;;;5004555;28;20725;-86
2022/09/03 00:56:14;;;;;;;3.40;3.10;;;11.90;99.90;13.10;96801.00;;;;5001418;28;20211;-84
2022/09/03 00:59:25;;;;;;;4.03;3.23;;;11.90;99.90;13.10;96796.00;;;;4996180;28;20623;-86
2022/09/03 01:02:27;;;;;;;4.83;3.50;;;12.10;99.90;13.30;96798.00;;;;4999221;28;20202;-81
2022/09/03 01:05:34;;;;;;;4.37;3.10;;;12.10;99.90;13.20;96792.00;;;;4995916;28;20198;-87
2022/09/03 01:08:53;;;;;;;3.13;2.47;;;12.20;99.90;13.20;96793.00;;;;5002337;28;20195;-85
2022/09/03 01:11:58;;;;;;;7.30;3.83;;;12.20;99.90;13.40;96804.00;;;;4991092;28;20210;-85
2022/09/03 01:14:59;;;;;;;3.40;3.10;;;12.30;99.90;13.40;96800.00;;;;5009741;28;20690;-86
2022/09/03 01:18:02;;;;;;;3.60;3.00;;;12.30;99.90;13.50;96806.00;;;;5009267;28;20225;-85
2022/09/03 01:21:08;;;;;;;2.93;2.60;;;12.40;99.90;13.30;96802.00;;;;5015539;28;20213;-84
2022/09/03 01:24:48;;;;;;;3.30;2.77;;;12.40;99.90;13.40;96811.00;;;;5000076;28;20614;-82
2022/09/03 01:27:48;;;;;;;3.33;3.03;;;12.40;99.90;13.10;96808.00;;;;5009782;28;20194;-81
2022/09/03 01:30:46;;;;;;;3.47;3.13;;;12.40;99.90;13.10;96810.00;;;;5006721;28;20222;-86
2022/09/03 01:33:41;;;;;;;4.63;2.70;;;12.30;99.90;13.20;96819.00;;;;4997410;28;20257;-86
2022/09/03 01:36:38;;;;;;;3.47;2.57;;;12.30;99.90;13.00;96810.00;;;;4999036;28;20202;-86
2022/09/03 01:39:39;;;;;;;6.13;2.97;;;12.30;99.90;12.70;96806.00;;;;5001514;28;20582;-87
2022/09/03 01:42:38;;;;;;;3.77;3.47;;;12.10;99.90;12.90;96802.00;;;;5011190;28;20209;-84
2022/09/03 01:45:43;;;;;;;3.80;3.00;;;12.10;99.90;13.00;96817.00;;;;5009636;28;20202;-87
2022/09/03 01:48:46;;;;;;;4.37;2.90;;;12.00;99.90;13.00;96818.00;;;;4997270;28;20556;-84
2022/09/03 01:51:34;;;;;;;3.23;2.70;;;12.00;99.90;12.60;96818.00;;;;4997889;28;20213;-87
2022/09/03 01:54:49;;;;;;;2.73;2.53;;;11.90;99.90;12.50;96812.00;;;;5009232;28;20234;-86
2022/09/03 01:57:49;;;;;;;3.30;3.03;;;11.90;99.90;12.20;96816.00;;;;4997178;28;20205;-83
2022/09/03 02:00:43;;;;;;;6.53;3.07;;;11.70;99.90;12.30;96814.00;;;;4997715;28;20209;-81
2022/09/03 02:03:38;;;;;;;3.17;2.97;;;11.60;99.90;12.40;96805.00;;;;5004716;28;20240;-83
2022/09/03 02:06:30;;;;;;;3.47;3.20;;;11.60;99.90;12.40;96804.00;;;;5010975;28;20202;-87
2022/09/03 02:09:20;;;;;;;3.37;3.07;;;11.50;99.90;12.10;96808.00;;;;4996959;28;20222;-87
2022/09/03 02:12:17;;;;;;;3.97;3.57;;;11.50;99.90;12.00;96812.00;;;;4995277;28;20203;-86
2022/09/03 02:15:12;;;;;;;3.97;3.67;;;11.40;99.90;12.00;96809.00;;;;5004490;28;20225;-84
2022/09/03 02:18:07;;;;;;;3.47;3.13;;;11.40;99.90;12.20;96812.00;;;;5013085;28;20671;-83
2022/09/03 02:20:56;;;;;;;3.03;2.83;;;11.40;99.90;12.40;96820.00;;;;5016636;28;20201;-87
2022/09/03 02:23:45;;;;;;;2.90;2.70;;;11.40;99.90;12.40;96815.00;;;;5010935;28;20221;-86
2022/09/03 02:26:34;;;;;;;3.63;3.33;;;11.40;99.90;12.20;96816.00;;;;5008148;28;20199;-87
2022/09/03 02:29:24;;;;;;;7.60;3.30;;;11.40;99.90;12.00;96813.00;;;;5009949;28;20206;-84
2022/09/03 02:32:13;;;;;;;5.10;3.10;;;11.40;99.90;12.00;96812.00;;;;4999666;28;20191;-85
2022/09/03 02:35:04;;;;;;;5.97;3.60;;;11.30;99.90;11.80;96821.00;;;;5001277;28;20222;-85
2022/09/03 02:37:53;;;;;;;3.27;2.93;;;11.30;99.90;11.40;96823.00;;;;5002002;28;20210;-88
2022/09/03 02:40:42;;;;;;;4.50;3.13;;;11.10;99.90;11.40;96815.00;;;;5004280;28;20661;-86
2022/09/03 02:43:39;;;;;;;3.67;3.10;;;10.90;99.90;11.50;96831.00;;;;5018936;28;20217;-86
2022/09/03 02:46:36;;;;;;;4.00;3.40;;;10.90;99.90;11.50;96840.00;;;;5004449;28;20198;-85
2022/09/03 02:49:25;;;;;;;4.07;3.23;;;10.90;99.90;11.70;96834.00;;;;5005113;28;20573;-87
2022/09/03 02:52:16;;;;;;;6.43;3.23;;;10.90;99.90;12.00;96828.00;;;;5004360;28;20206;-88
2022/09/03 02:55:06;;;;;;;3.73;3.00;;;11.00;99.90;11.90;96827.00;;;;5007059;28;20211;-87
2022/09/03 02:57:55;;;;;;;3.80;3.47;;;11.00;99.90;11.70;96839.00;;;;4998880;28;20567;-88
2022/09/03 03:00:44;;;;;;;4.20;3.40;;;11.00;99.90;11.60;96828.00;;;;4997460;28;20206;-87
2022/09/03 03:03:33;;;;;;;6.40;3.83;;;11.00;99.90;11.60;96827.00;;;;5004443;28;20241;-87
2022/09/03 03:06:22;;;;;;;3.83;3.53;;;10.90;99.90;11.50;96825.00;;;;5005784;28;20194;-87
2022/09/03 03:09:12;;;;;;;4.30;3.67;;;10.80;99.90;11.40;96832.00;;;;5004857;28;20216;-88
2022/09/03 03:12:01;;;;;;;5.37;3.60;;;10.80;99.90;11.50;96835.00;;;;4995857;28;20198;-88
2022/09/03 03:14:50;;;;;;;3.80;3.37;;;10.80;99.90;11.40;96832.00;;;;5001551;28;20225;-87
2022/09/03 03:17:39;;;;;;;6.07;3.43;;;10.80;99.90;11.20;96840.00;;;;5011413;28;20205;-86
2022/09/03 03:20:27;;;;;;;3.80;3.40;;;10.70;99.90;11.30;96826.00;;;;5015984;28;20209;-87
2022/09/03 03:23:17;;;;;;;4.77;4.03;;;10.70;99.90;11.40;96829.00;;;;5009737;28;20230;-88
2022/09/03 03:26:10;;;;;;;3.83;3.57;;;10.70;99.90;11.30;96830.00;;;;5007671;28;20205;-85
2022/09/03 03:29:03;;;;;;;3.67;3.37;;;10.70;99.90;10.90;96837.00;;;;5006803;28;20206;-86
2022/09/03 03:31:53;;;;;;;3.53;3.33;;;10.60;99.90;10.90;96846.00;;;;5011115;28;20225;-87
2022/09/03 03:34:41;;;;;;;4.37;3.77;;;10.50;99.90;10.80;96838.00;;;;4996420;28;20215;-85
2022/09/03 03:37:31;;;;;;;5.07;3.73;;;10.40;99.90;11.10;96835.00;;;;5001490;28;20194;-87
2022/09/03 03:40:20;;;;;;;5.22;4.72;;;10.40;99.90;11.20;96837.00;;;;5009474;28;20909;-86
2022/09/03 03:43:10;;;;;;;4.13;3.73;;;10.40;99.90;11.30;96833.00;;;;5016870;28;20233;-85
2022/09/03 03:45:59;;;;;;;3.67;3.37;;;10.40;99.90;11.10;96842.00;;;;5009326;28;20213;-86
2022/09/03 03:48:48;;;;;;;4.50;4.10;;;10.40;99.90;11.20;96840.00;;;;5008856;28;20211;-87
2022/09/03 03:51:39;;;;;;;4.97;3.60;;;10.40;99.90;11.10;96846.00;;;;5008707;28;20599;-87
2022/09/03 03:54:28;;;;;;;4.93;3.43;;;10.40;99.90;11.10;96836.00;;;;4999627;28;20223;-87
2022/09/03 03:57:18;;;;;;;4.90;4.40;;;10.40;99.90;11.40;96840.00;;;;4993856;28;20205;-86
2022/09/03 04:00:09;;;;;;;4.93;3.80;;;10.40;99.90;11.30;96838.00;;;;5009227;28;20213;-88
2022/09/03 04:03:00;;;;;;;4.00;3.60;;;10.50;99.90;11.30;96827.00;;;;4997209;28;20203;-85
2022/09/03 04:05:56;;;;;;;4.13;3.73;;;10.40;99.90;11.40;96835.00;;;;4993723;28;20202;-86
2022/09/03 04:08:47;;;;;;;4.87;3.50;;;10.50;99.90;11.30;96827.00;;;;4991435;28;20198;-86
2022/09/03 04:11:36;;;;;;;4.23;3.83;;;10.50;99.90;11.20;96832.00;;;;4993219;28;20226;-87
2022/09/03 04:14:24;;;;;;;3.43;3.03;;;10.40;99.90;11.00;96829.00;;;;4994345;28;20230;-85
2022/09/03 04:17:15;;;;;;;7.50;3.30;;;10.40;99.90;10.80;96827.00;;;;4994917;28;20221;-86
2022/09/03 04:20:04;;;;;;;4.33;4.03;;;10.30;99.90;10.60;96828.00;;;;5014925;28;20626;-86
2022/09/03 04:22:53;;;;;;;4.60;4.07;;;10.20;99.90;10.70;96831.00;;;;5005703;28;20217;-87
2022/09/03 04:25:43;;;;;;;4.33;3.93;;;10.20;99.90;10.70;96828.00;;;;4998814;28;20198;-87
2022/09/03 04:28:32;;;;;;;4.90;4.40;;;10.10;99.90;10.60;96831.00;;;;5009556;28;20206;-87
2022/09/03 04:31:22;;;;;;;4.70;4.23;;;10.10;99.90;10.60;96816.00;;;;5010942;28;20229;-87
2022/09/03 04:34:12;;;;;;;6.73;4.37;;;10.10;99.90;10.70;96814.00;;;;4993578;28;20224;-87
2022/09/03 04:37:00;;;;;;;4.20;3.80;;;10.00;99.90;11.10;96823.00;;;;4994311;28;20578;-85
2022/09/03 04:39:49;;;;;;;7.47;3.70;;;10.10;99.90;10.90;96830.00;;;;5005900;28;20202;-85
2022/09/03 04:42:38;;;;;;;10.57;4.83;;;10.10;99.90;11.10;96818.00;;;;5008769;28;20197;-84
2022/09/03 04:45:27;;;;;;;4.63;4.13;;;10.20;99.90;11.10;96827.00;;;;5003336;28;20198;-88
2022/09/03 04:48:16;;;;;;;4.17;3.83;;;10.20;99.90;10.90;96821.00;;;;5019867;28;20202;-85
2022/09/03 04:51:09;;;;;;;7.17;4.13;;;10.20;99.90;10.80;96824.00;;;;5032545;28;20224;-85
2022/09/03 04:54:00;;;;;;;4.37;3.90;;;10.20;99.90;10.80;96821.00;;;;5024262;28;20232;-87
2022/09/03 04:56:48;;;;;;;3.97;3.67;;;10.20;99.90;10.90;96828.00;;;;5017042;28;20206;-85
2022/09/03 04:59:37;;;;;;;4.00;3.70;;;10.20;99.90;10.90;96831.00;;;;5012435;28;20582;-86
2022/09/03 05:02:26;;;;;;;4.47;3.63;;;10.20;99.90;10.90;96834.00;;;;5016464;28;20202;-87
2022/09/03 05:05:15;;;;;;;9.27;4.37;;;10.20;99.90;11.10;96830.00;;;;5002705;28;20202;-87
2022/09/03 05:08:06;;;;;;;4.57;4.10;;;10.20;99.90;11.40;96825.00;;;;4998079;28;20703;-87
2022/09/03 05:11:00;;;;;;;5.87;3.80;;;10.30;99.90;11.60;96827.00;;;;4997729;28;20238;-87
2022/09/03 05:13:50;;;;;;;11.50;3.77;;;10.40;99.90;11.70;96821.00;;;;5015647;28;20222;-87
2022/09/03 05:16:39;;;;;;;4.30;3.90;;;10.60;99.90;11.70;96831.00;;;;5016664;28;20209;-87
2022/09/03 05:19:28;;;;;;;3.97;3.67;;;10.70;99.90;11.60;96836.00;;;;5013726;28;20218;-86
2022/09/03 05:22:20;;;;;;;4.50;4.20;;;10.70;99.90;11.60;96828.00;;;;5014724;28;20205;-87
2022/09/03 05:25:10;;;;;;;5.13;3.33;;;10.70;99.90;11.90;96832.00;;;;5016377;28;20206;-87
2022/09/03 05:27:59;;;;;;;4.07;3.70;;;10.80;99.90;12.00;96830.00;;;;5014833;28;20905;-87
2022/09/03 05:30:58;;;;;;;4.20;3.80;;;10.90;99.90;12.00;96833.00;;;;5010117;28;20194;-87
2022/09/03 05:33:49;;;;;;;3.90;3.60;;;11.00;99.90;11.90;96826.00;;;;5015613;28;20218;-88
2022/09/03 05:36:39;;;;;;;3.47;3.17;;;11.00;99.90;11.80;96836.00;;;;5016348;28;20198;-85
2022/09/03 05:39:27;;;;;;;3.13;2.93;;;11.00;99.90;11.40;96830.00;;;;5015728;28;20202;-87
2022/09/03 05:42:17;;;;;;;5.20;3.67;;;10.90;99.90;11.40;96831.00;;;;5023589;28;20289;-87
2022/09/03 05:45:09;;;;;;;3.90;3.00;;;10.80;99.90;11.60;96838.00;;;;5034644;28;20218;-86
2022/09/03 05:48:01;;;;;;;3.90;3.50;;;10.80;99.90;11.70;96838.00;;;;5024820;28;20202;-87
2022/09/03 05:50:50;;;;;;;4.27;3.87;;;10.90;99.90;12.10;96823.00;;;;5011647;28;20911;-84
2022/09/03 05:53:40;;;;;;;5.40;4.33;;;11.00;99.90;12.20;96825.00;;;;5013448;28;20236;-85
2022/09/03 05:56:31;;;;;;;4.13;3.73;;;11.10;99.90;12.30;96818.00;;;;5016342;28;20198;-86
2022/09/03 05:59:21;;;;;;;4.07;3.77;;;11.30;99.90;12.40;96821.00;;;;5014330;28;20722;-82
2022/09/03 06:02:10;;;;;;;4.60;3.40;;;11.40;99.90;12.20;96822.00;;;;5015853;28;20197;-84
2022/09/03 06:04:59;;;;;;;4.67;3.73;;;11.50;99.90;12.30;96832.00;;;;5016143;28;20604;-85
2022/09/03 06:07:48;;;;;;;4.30;4.00;;;11.50;99.90;12.60;96820.00;;;;5014296;28;20579;-87
2022/09/03 06:10:37;;;;;;;4.60;3.13;;;11.60;99.90;12.70;96819.00;;;;5010356;28;20190;-85
2022/09/03 06:13:28;;;;;;;4.43;4.03;;;11.70;99.90;12.80;96823.00;;;;5014207;28;20221;-87
2022/09/03 06:16:18;;;;;;;7.70;4.83;;;11.80;99.90;13.00;96821.00;;;;5014851;28;20193;-86
2022/09/03 06:19:09;;;;;;;4.03;3.63;;;11.90;99.90;13.20;96820.00;;;;5015774;28;20216;-87
2022/09/03 06:21:58;;;;;;;4.37;3.97;;;12.10;99.90;13.30;96829.00;;;;5035016;28;20193;-87
2022/09/03 06:24:47;;;;;;;4.33;3.93;;;12.20;99.90;13.50;96835.00;;;;5011282;28;20214;-85
2022/09/03 06:27:35;;;;;;;5.17;4.53;;;12.30;99.90;13.50;96830.00;;;;5010505;28;20692;-86
2022/09/03 06:30:25;;;;;;;4.53;4.13;;;12.40;99.90;13.80;96833.00;;;;5006269;28;20198;-88
2022/09/03 06:33:17;;;;;;;4.37;3.93;;;12.60;99.90;13.60;96819.00;;;;5013927;28;20288;-87
2022/09/03 06:36:08;;;;;;;4.17;3.87;;;12.70;99.90;14.10;96822.00;;;;5014691;28;20419;-86
2022/09/03 06:38:58;;;;;;;5.00;4.57;;;12.90;99.90;14.60;96829.00;;;;5012997;28;20214;-87
2022/09/03 06:41:50;;;;;;;5.53;5.03;;;13.10;99.90;14.60;96827.00;;;;5017649;28;20217;-87
2022/09/03 06:44:39;;;;;;;5.13;4.63;;;13.30;99.90;14.50;96831.00;;;;5009075;28;20687;-87
2022/09/03 06:47:29;;;;;;;7.97;4.33;;;13.40;99.90;14.70;96828.00;;;;5011738;28;20198;-85
2022/09/03 06:50:19;;;;;;;4.37;3.97;;;13.60;99.90;15.20;96833.00;;;;5005837;28;20221;-86
2022/09/03 06:53:08;;;;;;;4.10;3.73;;;13.70;99.90;15.50;96822.00;;;;5004797;28;20714;-86
2022/09/03 06:55:59;;;;;;;4.60;4.20;;;13.90;99.90;15.90;96819.00;;;;5009734;28;20586;-84
2022/09/03 06:58:49;;;;;;;10.33;4.87;;;14.10;99.90;16.10;96819.00;;;;5009120;28;20619;-85
2022/09/03 07:01:39;;;;;;;9.07;4.23;;;14.40;99.90;16.30;96818.00;;;;5009600;28;20197;-85
2022/09/03 07:04:28;;;;;;;9.80;4.47;;;14.60;99.90;16.40;96809.00;;;;5009645;28;20226;-85
2022/09/03 07:07:18;;;;;;;4.63;4.20;;;14.80;99.90;16.80;96817.00;;;;5010027;28;20675;-87
2022/09/03 07:10:12;;;;;;;6.30;4.37;;;15.00;99.90;16.80;96808.00;;;;5005539;28;20191;-87
2022/09/03 07:13:01;;;;;;;6.43;4.00;;;15.20;99.90;17.10;96807.00;;;;5011077;28;20233;-84
2022/09/03 07:16:00;;;;;;;6.73;4.50;;;15.40;99.90;17.20;96819.00;;;;5013832;28;20225;-85
2022/09/03 07:18:50;;;;;;;5.47;3.53;;;15.60;99.90;17.40;96818.00;;;;5009291;28;20209;-86
2022/09/03 07:21:40;;;;;;;6.10;3.43;;;15.80;99.90;17.70;96830.00;;;;5009172;28;20200;-85
2022/09/03 07:24:31;;;;;;;5.73;3.70;;;16.00;99.90;17.80;96827.00;;;;5009240;28;20226;-86
2022/09/03 07:27:20;;;;;;;4.37;3.67;;;16.20;99.90;18.10;96831.00;;;;5010032;28;20198;-85
2022/09/03 07:30:11;;;;;;;6.23;3.43;;;16.40;99.90;18.20;96823.00;;;;5003840;28;20202;-85
2022/09/03 07:33:03;;;;;;;3.73;3.13;;;16.50;99.90;18.50;96828.00;;;;5008784;28;20561;-85
2022/09/03 07:35:52;;;;;;;5.53;4.13;;;16.70;99.90;18.60;96811.00;;;;5008744;28;20240;-86
2022/09/03 07:38:43;;;;;;;3.57;3.13;;;16.90;99.90;18.60;96811.00;;;;5004009;28;20751;-87
2022/09/03 07:41:33;;;;;;;4.50;3.23;;;17.00;99.90;18.80;96821.00;;;;5012515;28;20217;-85
2022/09/03 07:44:23;;;;;;;3.97;3.13;;;17.20;99.90;19.00;96820.00;;;;5006704;28;20214;-84
2022/09/03 07:47:13;;;;;;;6.60;3.10;;;17.40;99.90;19.20;96818.00;;;;5002780;28;20211;-85
2022/09/03 07:50:03;;;;;;;4.07;3.40;;;17.50;99.90;19.50;96816.00;;;;5012573;28;20210;-84
2022/09/03 07:52:57;;;;;;;4.77;2.80;;;17.70;99.90;19.60;96821.00;;;;5011416;28;20229;-86
2022/09/03 07:55:46;;;;;;;6.37;3.03;;;17.90;99.90;19.80;96818.00;;;;5000212;28;20210;-87
2022/09/03 07:58:39;;;;;;;4.97;3.00;;;18.10;99.90;20.10;96808.00;;;;5002200;28;20201;-87
2022/09/03 08:01:30;;;;;;;3.43;2.93;;;18.30;99.90;20.30;96815.00;;;;5002615;28;20588;-86
2022/09/03 08:04:20;;;;;;;3.47;2.63;;;18.50;99.90;20.50;96819.00;;;;5001642;28;20241;-85
2022/09/03 08:07:09;;;;;;;3.03;2.70;;;18.70;99.90;20.70;96811.00;;;;4996970;28;20202;-85
2022/09/03 08:10:00;;;;;;;3.00;2.80;;;18.80;99.90;20.80;96819.00;;;;4999308;28;20206;-84
2022/09/03 08:12:49;;;;;;;2.70;2.50;;;19.00;99.90;21.00;96820.00;;;;4996174;28;20229;-83
2022/09/03 08:15:41;;;;;;;3.47;2.77;;;19.20;99.90;21.20;96819.00;;;;4997942;28;20198;-87
2022/09/03 08:18:34;;;;;;;2.77;2.53;;;19.40;99.90;21.40;96820.00;;;;5011858;28;20206;-86
2022/09/03 08:21:26;;;;;;;5.73;2.87;;;19.50;99.90;21.30;96814.00;;;;5007423;28;20198;-85
2022/09/03 08:24:17;;;;;;;3.03;2.30;;;19.60;99.90;21.50;96815.00;;;;5012849;28;20225;-86
2022/09/03 08:27:06;;;;;;;3.03;2.63;;;19.80;99.90;21.60;96810.00;;;;5012175;28;20554;-84
2022/09/03 08:29:58;;;;;;;2.23;2.03;;;19.90;99.90;21.50;96812.00;;;;5008111;28;20209;-86
2022/09/03 08:32:54;;;;;;;2.33;2.13;;;20.00;99.90;21.70;96820.00;;;;5041813;22;20233;-89
2022/09/03 08:36:03;;;;;;;2.73;2.47;;;20.00;99.90;22.10;96818.00;;;;5044707;28;20218;-89
2022/09/03 08:39:08;;;;;;;3.13;2.57;;;22.10;99.90;22.20;96816.00;;;;5025072;28;20684;-90
2022/09/03 08:42:26;;;;;;;2.17;1.97;;;20.40;99.90;22.30;96803.00;;;;5018752;28;20200;-89
2022/09/03 08:45:20;;;;;;;3.27;1.67;;;20.50;99.90;22.40;96804.00;;;;5019349;28;20202;-90
2022/09/03 08:48:17;;;;;;;4.63;3.17;;;19.50;99.90;22.30;96806.00;;;;5020758;28;20205;-91
2022/09/03 08:51:14;;;;;;;3.33;1.83;;;20.70;99.90;22.20;96802.00;;;;5029225;28;20202;-90
2022/09/03 08:54:18;;;;;;;3.10;2.10;;;20.10;99.90;22.40;96800.00;;;;5025226;28;20292;-90
2022/09/03 08:57:13;;;;;;;2.53;2.03;;;20.80;99.90;22.80;96802.00;;;;5030186;28;20221;-90
2022/09/03 09:00:05;;;;;;;2.00;1.80;;;21.00;99.90;23.00;96808.00;;;;5032885;28;20212;-90
2022/09/03 09:03:51;;;;;;;2.83;2.33;;;21.20;99.90;23.10;96807.00;;;;5030747;28;20201;-90
2022/09/03 09:06:53;;;;;;;2.50;2.10;;;21.40;99.90;23.60;96803.00;;;;5021944;28;20612;-91
2022/09/03 09:10:06;;;;;;;2.70;2.50;;;21.60;99.90;23.50;96804.00;;;;5030141;28;20273;-90
2022/09/03 09:13:24;;;;;;;2.80;2.60;;;21.40;99.90;23.70;96803.00;;;;5028866;28;20232;-90
2022/09/03 09:16:26;;;;;;;4.67;2.43;;;21.90;99.90;23.10;96811.00;;;;5039619;28;20232;-90
2022/09/03 09:19:42;;;;;;;6.03;2.40;;;22.00;99.90;23.70;96804.00;;;;5055835;28;20174;-91
2022/09/03 09:22:39;;;;;;;3.10;2.07;;;22.00;99.90;24.00;96807.00;;;;5051526;28;20200;-89
2022/09/03 09:25:31;;;;;;;2.17;1.97;;;22.30;99.90;23.70;96809.00;;;;5050810;28;20194;-89
2022/09/03 09:28:43;;;;;;;7.63;2.47;;;22.30;99.90;24.20;96804.00;;;;5038653;28;20339;-90
2022/09/03 09:31:55;;;;;;;2.77;2.40;;;22.40;99.90;24.60;96810.00;;;;5025245;28;20205;-91
2022/09/03 09:34:53;;;;;;;3.73;2.77;;;22.70;99.90;23.50;96796.00;;;;5026808;28;20235;-90
2022/09/03 09:37:51;;;;;;;2.87;2.10;;;22.80;99.90;23.30;96794.00;;;;5023016;28;20229;-90
2022/09/03 09:40:42;;;;;;;3.40;2.20;;;22.50;99.90;23.90;96797.00;;;;5021659;28;20217;-90
2022/09/03 09:43:34;;;;;;;3.33;2.20;;;22.50;99.90;23.70;96800.00;;;;5018494;28;20202;-89
2022/09/03 09:46:29;;;;;;;3.07;2.13;;;22.60;99.90;24.50;96809.00;;;;5018589;28;20250;-90
2022/09/03 09:49:34;;;;;;;2.40;2.03;;;22.70;99.90;25.20;96804.00;;;;5024960;28;20202;-91
2022/09/03 09:52:27;;;;;;;2.10;2.00;;;23.00;99.90;24.90;96787.00;;;;5023074;28;20198;-89
2022/09/03 09:55:28;;;;;;;5.47;2.70;;;23.10;99.90;25.20;96793.00;;;;5021244;28;20198;-90
2022/09/03 09:58:29;;;;;;;3.73;2.53;;;22.00;99.80;25.00;96795.00;;;;5024883;28;20572;-89
2022/09/03 10:01:44;;;;;;;3.03;2.30;;;23.50;99.60;26.00;96797.00;;;;5023759;28;20201;-89
2022/09/03 10:04:34;;;;;;;3.63;2.17;;;23.80;99.90;25.10;96789.00;;;;5016271;28;20201;-89
2022/09/03 10:07:31;;;;;;;3.90;2.00;;;23.80;98.80;25.60;96794.00;;;;5019587;28;20213;-89
2022/09/03 10:10:34;;;;;;;3.40;1.90;;;24.00;99.60;25.40;96792.00;;;;5023502;28;20193;-88
2022/09/03 10:13:41;;;;;;;2.97;2.37;;;25.30;98.20;26.20;96788.00;;;;5020062;28;20222;-92
2022/09/03 10:16:48;;;;;;;2.70;2.50;;;23.60;97.20;26.40;96788.00;;;;5023645;28;20213;-90
2022/09/03 10:23:10;;;;;;;2.97;2.67;;;26.00;96.40;25.80;96784.00;;;;5024700;28;20585;-89
2022/09/03 10:26:16;;;;;;;3.20;2.27;;;24.60;95.70;26.40;96786.00;;;;5030017;28;20221;-92
2022/09/03 10:29:24;;;;;;;6.43;2.40;;;25.20;96.50;27.30;96793.00;;;;5023839;28;20197;-90
2022/09/03 10:32:51;;;;;;;2.90;1.90;;;24.90;96.40;27.10;96788.00;;;;5025776;28;20235;-90
2022/09/03 10:35:57;;;;;;;3.30;2.70;;;25.10;96.00;26.20;96799.00;;;;5020355;28;20204;-90
2022/09/03 10:39:08;;;;;;;2.30;2.10;;;24.90;95.40;26.60;96795.00;;;;5023120;28;20202;-90
2022/09/03 10:42:12;;;;;;;3.77;2.67;;;24.90;95.20;27.00;96791.00;;;;5021102;28;20213;-90
2022/09/03 10:45:32;;;;;;;2.47;2.27;;;25.20;95.30;27.40;96799.00;;;;5018194;28;20215;-90
2022/09/03 10:48:54;;;;;;;3.90;2.30;;;24.30;94.90;28.10;96791.00;;;;5028351;28;20205;-90
2022/09/03 10:52:09;;;;;;;5.27;2.50;;;25.10;94.40;27.40;96776.00;;;;5015465;28;20195;-89
2022/09/03 10:55:25;;;;;;;2.90;2.60;;;25.90;93.20;28.10;96775.00;;;;5020939;28;20229;-90
2022/09/03 10:58:37;;;;;;;2.43;2.20;;;26.00;93.60;28.60;96773.00;;;;5017304;28;20690;-91
2022/09/03 11:01:45;;;;;;;2.45;2.25;;;26.30;93.60;27.40;96767.00;;;;5012763;28;20253;-90
2022/09/03 11:04:48;;;;;;;4.60;2.43;;;26.60;92.40;28.50;96761.00;;;;5028143;28;20206;-91
2022/09/03 11:07:45;;;;;;;3.10;2.47;;;26.40;92.60;27.60;96765.00;;;;5024829;28;20232;-89
2022/09/03 11:10:48;;;;;;;3.47;2.27;;;26.60;92.00;27.80;96796.00;;;;5017282;28;20205;-90
2022/09/03 11:13:56;;;;;;;2.53;2.33;;;26.50;91.60;27.50;96795.00;;;;5029795;28;20218;-90
2022/09/03 11:16:50;;;;;;;4.60;2.47;;;26.30;91.60;25.90;96771.00;;;;5022755;28;20224;-90
2022/09/03 11:19:58;;;;;;;3.37;2.13;;;25.80;90.60;27.30;96761.00;;;;5013428;28;20655;-92
2022/09/03 11:22:57;;;;;;;2.50;2.30;;;25.70;91.80;26.60;96762.00;;;;5025341;28;20208;-89
2022/09/03 11:25:54;;;;;;;4.80;2.10;;;25.80;90.70;26.10;96755.00;;;;5026124;28;20932;-90
2022/09/03 11:28:57;;;;;;;4.83;2.90;;;25.60;90.80;26.80;96761.00;;;;5022321;28;20597;-90
2022/09/03 11:31:56;;;;;;;2.67;2.50;;;25.60;90.70;28.10;96752.00;;;;5020798;28;20298;-91
2022/09/03 11:34:59;;;;;;;2.70;2.50;;;25.80;91.50;29.20;96760.00;;;;5018956;28;20279;-91
2022/09/03 11:38:06;;;;;;;2.30;2.10;;;26.30;92.50;28.80;96773.00;;;;5025129;28;20822;-91
2022/09/03 11:41:24;;;;;;;2.77;2.03;;;26.70;90.50;29.30;96760.00;;;;5022713;28;20208;-90
2022/09/03 11:44:38;;;;;;;4.20;2.60;;;27.30;90.90;30.10;96764.00;;;;5017627;28;20285;-90
2022/09/03 11:47:45;;;;;;;3.50;2.33;;;27.60;88.70;29.80;96763.00;;;;5017721;28;20212;-88
2022/09/03 11:50:59;;;;;;;2.40;2.20;;;28.10;85.60;29.30;96761.00;;;;5022348;28;20679;-90
2022/09/03 11:54:00;;;;;;;3.33;2.13;;;28.30;83.30;29.60;96762.00;;;;5026224;28;20622;-90
2022/09/03 11:57:24;;;;;;;2.47;2.33;;;28.30;81.50;29.40;96766.00;;;;5025805;28;20225;-90
2022/09/03 12:00:21;;;;;;;5.67;3.53;;;28.30;81.90;29.80;96768.00;;;;5022146;28;20198;-91
2022/09/03 12:03:16;;;;;;;4.90;2.50;;;28.40;81.20;27.90;96811.00;;;;5036883;28;20194;-89
2022/09/03 12:06:43;;;;;;;4.30;2.53;;;28.00;81.00;28.00;96780.00;;;;5040188;28;20224;-89
2022/09/03 12:09:51;;;;;;;2.83;2.20;;;27.50;82.20;27.70;96753.00;;;;5043429;28;20207;-89
2022/09/03 12:12:55;;;;;;;2.17;1.90;;;27.30;80.80;28.90;96750.00;;;;5019093;28;20574;-89
2022/09/03 12:16:32;;;;;;;2.50;2.00;;;27.10;81.50;28.10;96765.00;;;;5020948;28;20237;-89
2022/09/03 12:19:33;;;;;;;2.50;2.30;;;27.30;81.80;29.30;96763.00;;;;4996556;28;20198;-89
2022/09/03 12:22:24;;;;;;;2.63;2.43;;;27.40;82.40;29.50;96757.00;;;;5017827;28;20204;-88
2022/09/03 12:25:16;;;;;;;2.63;2.43;;;27.80;81.40;29.30;96754.00;;;;5021467;28;20209;-89
2022/09/03 12:28:18;;;;;;;2.30;1.90;;;28.00;79.40;30.40;96767.00;;;;5021418;28;20690;-89
2022/09/03 12:31:20;;;;;;;2.33;2.13;;;28.30;78.50;29.70;96786.00;;;;5020133;28;20206;-91
2022/09/03 12:34:14;;;;;;;2.27;1.97;;;28.20;77.60;30.50;96757.00;;;;5016043;28;20203;-89
2022/09/03 12:37:04;;;;;;;3.78;1.98;;;28.30;77.30;29.90;96757.00;;;;5016772;28;20728;-89
2022/09/03 12:39:55;;;;;;;2.25;2.05;;;28.50;76.10;28.20;96751.00;;;;5016076;28;20215;-89
2022/09/03 12:43:15;;;;;;;2.30;2.10;;;28.20;74.00;29.50;96732.00;;;;5022664;28;20266;-89
2022/09/03 12:46:27;;;;;;;2.20;2.00;;;28.10;75.60;29.90;96736.00;;;;5024633;28;20428;-89
2022/09/03 12:49:17;;;;;;;1.75;1.65;;;28.10;75.60;31.80;96731.00;;;;5020605;28;20218;-89
2022/09/03 12:52:27;;;;;;;2.97;2.10;;;28.50;78.10;31.60;96731.00;;;;5021267;28;20187;-90
2022/09/03 12:55:35;;;;;;;2.63;2.38;;;29.20;74.60;32.40;96727.00;;;;5028196;28;20207;-92
2022/09/03 12:58:31;;;;;;;2.58;2.10;;;29.60;72.70;32.40;96721.00;;;;5012231;28;20195;-91
2022/09/03 13:01:24;;;;;;;2.33;1.85;;;30.10;71.60;32.60;96763.00;;;;5014138;28;20243;-91
2022/09/03 13:04:17;;;;;;;2.22;2.03;;;30.40;71.70;29.20;96732.00;;;;5024827;28;20236;-90
2022/09/03 13:07:12;;;;;;;2.00;1.80;;;29.70;68.60;29.00;96749.00;;;;5023045;28;20604;-91
2022/09/03 13:10:07;;;;;;;3.22;2.13;;;28.70;69.30;26.70;96765.00;;;;5018864;28;20200;-88